createdAt,value
2023-03-17T00:01:44.542Z,11.56
2023-03-17T00:04:12.581Z,11.59
2023-03-17T00:06:41.171Z,11.60
2023-03-17T00:09:14.540Z,11.57
2023-03-17T00:11:41.519Z,11.60
2023-03-17T00:14:09.931Z,11.66
2023-03-17T00:16:42.253Z,11.68
2023-03-17T00:19:16.422Z,11.66
2023-03-17T00:21:45.067Z,11.66
2023-03-17T00:24:14.902Z,11.68
2023-03-17T00:26:43.151Z,11.70
2023-03-17T00:29:11.958Z,11.72
2023-03-17T00:31:40.110Z,11.71
2023-03-17T00:34:11.392Z,11.68
2023-03-17T00:36:38.523Z,11.67
2023-03-17T00:41:39.798Z,11.58
2023-03-17T00:44:06.700Z,11.53
2023-03-17T00:46:37.828Z,11.51
2023-03-17T00:51:43.748Z,11.43
2023-03-17T00:54:11.813Z,11.41
2023-03-17T00:56:41.479Z,11.39
2023-03-17T00:59:20.511Z,11.37
2023-03-17T01:01:49.100Z,11.37
2023-03-17T01:04:16.346Z,11.36
2023-03-17T01:06:43.393Z,11.40
2023-03-17T01:09:14.658Z,11.38
2023-03-17T01:11:42.044Z,11.38
2023-03-17T01:14:09.902Z,11.34
2023-03-17T01:16:36.773Z,11.36
2023-03-17T01:19:05.821Z,11.39
2023-03-17T01:21:32.793Z,11.37
2023-03-17T01:24:00.281Z,11.34
2023-03-17T01:26:27.218Z,11.34
2023-03-17T01:28:54.647Z,11.34
2023-03-17T01:31:23.400Z,11.36
2023-03-17T01:33:51.260Z,11.35
2023-03-17T01:36:20.533Z,11.30
2023-03-17T01:38:50.911Z,11.26
2023-03-17T01:41:18.184Z,11.26
2023-03-17T01:43:45.090Z,11.25
2023-03-17T01:46:27.484Z,11.23
2023-03-17T01:49:15.474Z,11.17
2023-03-17T01:51:53.829Z,11.16
2023-03-17T01:54:26.385Z,11.18
2023-03-17T01:56:58.240Z,11.14
2023-03-17T01:59:31.495Z,11.20
2023-03-17T02:02:04.850Z,11.21
2023-03-17T02:04:33.959Z,11.21
2023-03-17T02:07:04.968Z,11.16
2023-03-17T02:09:34.036Z,11.15
2023-03-17T02:12:03.015Z,11.14
2023-03-17T02:14:30.238Z,11.16
2023-03-17T02:16:57.472Z,11.18
2023-03-17T02:19:25.270Z,11.18
2023-03-17T02:21:57.978Z,11.19
2023-03-17T02:24:35.791Z,11.17
2023-03-17T02:27:08.504Z,11.14
2023-03-17T02:29:37.680Z,11.14
2023-03-17T02:32:05.763Z,11.12
2023-03-17T02:34:33.880Z,11.07
2023-03-17T02:37:02.153Z,11.05
2023-03-17T02:39:29.028Z,11.03
2023-03-17T02:41:56.154Z,11.04
2023-03-17T02:44:23.087Z,11.01
2023-03-17T02:46:49.936Z,10.99
2023-03-17T02:49:18.335Z,10.97
2023-03-17T02:51:45.850Z,10.96
2023-03-17T02:54:14.137Z,10.92
2023-03-17T02:56:41.857Z,10.80
2023-03-17T02:59:09.707Z,10.68
2023-03-17T03:01:36.814Z,10.60
2023-03-17T03:04:04.237Z,10.62
2023-03-17T03:06:31.711Z,10.61
2023-03-17T03:08:59.329Z,10.68
2023-03-17T03:11:29.170Z,10.65
2023-03-17T03:13:56.219Z,10.62
2023-03-17T03:16:23.125Z,10.65
2023-03-17T03:18:50.133Z,10.68
2023-03-17T03:21:17.267Z,10.70
2023-03-17T03:23:44.272Z,10.64
2023-03-17T03:26:12.031Z,10.63
2023-03-17T03:28:40.575Z,10.62
2023-03-17T03:31:08.080Z,10.63
2023-03-17T03:33:36.399Z,10.62
2023-03-17T03:36:03.692Z,10.57
2023-03-17T03:38:30.637Z,10.56
2023-03-17T03:40:57.700Z,10.53
2023-03-17T03:43:24.620Z,10.54
2023-03-17T03:45:54.441Z,10.49
2023-03-17T03:48:22.450Z,10.43
2023-03-17T03:50:49.700Z,10.45
2023-03-17T03:53:16.726Z,10.47
2023-03-17T03:55:43.629Z,10.45
2023-03-17T03:58:11.242Z,10.46
2023-03-17T04:00:38.296Z,10.46
2023-03-17T04:03:06.543Z,10.43
2023-03-17T04:05:34.108Z,10.37
2023-03-17T04:08:01.117Z,10.34
2023-03-17T04:10:28.315Z,10.36
2023-03-17T04:12:56.230Z,10.30
2023-03-17T04:15:23.380Z,10.25
2023-03-17T04:17:50.882Z,10.24
2023-03-17T04:20:19.500Z,10.22
2023-03-17T04:22:46.616Z,10.20
2023-03-17T04:25:15.370Z,10.22
2023-03-17T04:27:43.303Z,10.17
2023-03-17T04:30:16.706Z,10.13
2023-03-17T04:32:44.643Z,10.09
2023-03-17T04:35:14.518Z,10.10
2023-03-17T04:37:43.229Z,10.11
2023-03-17T04:40:12.896Z,10.12
2023-03-17T04:42:40.553Z,10.10
2023-03-17T04:45:11.191Z,10.07
2023-03-17T04:47:39.315Z,10.04
2023-03-17T04:50:08.784Z,10.07
2023-03-17T04:52:36.768Z,9.99
2023-03-17T04:55:08.208Z,10.00
2023-03-17T04:57:35.211Z,10.04
2023-03-17T05:00:02.124Z,10.06
2023-03-17T05:02:29.328Z,10.06
2023-03-17T05:04:56.335Z,10.03
2023-03-17T05:07:23.330Z,9.96
2023-03-17T05:09:50.210Z,9.95
2023-03-17T05:12:18.542Z,9.96
2023-03-17T05:14:45.471Z,9.96
2023-03-17T05:17:12.461Z,9.95
2023-03-17T05:19:39.544Z,9.96
2023-03-17T05:22:07.118Z,9.97
2023-03-17T05:24:34.280Z,9.94
2023-03-17T05:27:01.192Z,9.92
2023-03-17T05:29:29.972Z,9.92
2023-03-17T05:31:56.904Z,9.89
2023-03-17T05:34:23.840Z,9.87
2023-03-17T05:36:51.009Z,9.89
2023-03-17T05:39:17.923Z,9.86
2023-03-17T05:41:44.885Z,9.82
2023-03-17T05:44:11.790Z,9.85
2023-03-17T05:46:40.577Z,9.86
2023-03-17T05:49:07.800Z,9.85
2023-03-17T05:51:36.815Z,9.91
2023-03-17T05:54:04.372Z,9.97
2023-03-17T05:56:33.613Z,10.01
2023-03-17T05:59:01.584Z,10.01
2023-03-17T06:01:28.633Z,10.03
2023-03-17T06:03:57.116Z,10.09
2023-03-17T06:06:24.516Z,10.15
2023-03-17T06:08:51.576Z,10.20
2023-03-17T06:11:20.595Z,10.21
2023-03-17T06:13:48.250Z,10.24
2023-03-17T06:16:15.550Z,10.28
2023-03-17T06:18:42.655Z,10.30
2023-03-17T06:21:11.610Z,10.31
2023-03-17T06:23:38.620Z,10.32
2023-03-17T06:26:06.302Z,10.30
2023-03-17T06:28:33.211Z,10.29
2023-03-17T06:31:00.283Z,10.25
2023-03-17T06:33:28.163Z,10.30
2023-03-17T06:35:55.089Z,10.32
2023-03-17T06:38:23.310Z,10.36
2023-03-17T06:40:50.615Z,10.42
2023-03-17T06:43:19.445Z,10.47
2023-03-17T06:45:46.841Z,10.54
2023-03-17T06:48:13.901Z,10.63
2023-03-17T06:50:40.991Z,10.75
2023-03-17T06:53:08.110Z,10.83
2023-03-17T06:55:36.453Z,10.95
2023-03-17T06:58:03.480Z,11.06
2023-03-17T07:00:30.498Z,11.16
2023-03-17T07:02:57.786Z,11.31
2023-03-17T07:05:24.802Z,11.56
2023-03-17T07:07:51.754Z,11.93
2023-03-17T07:10:19.144Z,12.42
2023-03-17T07:12:47.799Z,13.00
2023-03-17T07:15:15.439Z,13.61
2023-03-17T07:17:42.621Z,14.23
2023-03-17T07:20:11.697Z,14.70
2023-03-17T07:22:38.662Z,15.12
2023-03-17T07:25:07.797Z,15.31
2023-03-17T07:27:34.680Z,15.33
2023-03-17T07:30:04.929Z,15.23
2023-03-17T07:32:32.616Z,15.28
2023-03-17T07:34:59.757Z,15.24
2023-03-17T07:37:26.659Z,15.37
2023-03-17T07:39:53.571Z,15.59
2023-03-17T07:42:20.618Z,15.70
2023-03-17T07:44:47.643Z,15.94
2023-03-17T07:47:16.211Z,16.23
2023-03-17T07:49:43.386Z,16.64
2023-03-17T07:52:11.390Z,17.04
2023-03-17T07:54:41.526Z,17.32
2023-03-17T07:57:10.917Z,17.35
2023-03-17T07:59:38.269Z,17.37
2023-03-17T08:02:05.351Z,17.52
2023-03-17T08:04:34.884Z,17.79
2023-03-17T08:07:01.849Z,18.06
2023-03-17T08:09:28.754Z,18.29
2023-03-17T08:11:56.314Z,18.60
2023-03-17T08:14:23.256Z,18.72
2023-03-17T08:16:50.253Z,18.80
2023-03-17T08:19:17.469Z,18.92
2023-03-17T08:21:45.802Z,19.09
2023-03-17T08:24:12.683Z,19.25
2023-03-17T08:26:39.653Z,19.26
2023-03-17T08:29:07.918Z,19.27
2023-03-17T08:31:35.743Z,19.38
2023-03-17T08:34:03.027Z,19.61
2023-03-17T08:36:30.629Z,19.75
2023-03-17T08:38:59.181Z,19.84
2023-03-17T08:41:28.154Z,19.92
2023-03-17T08:43:56.052Z,19.98
2023-03-17T08:46:25.992Z,20.05
2023-03-17T08:48:56.347Z,20.44
2023-03-17T08:51:26.744Z,20.97
2023-03-17T08:53:55.203Z,21.28
2023-03-17T08:56:23.553Z,21.64
2023-03-17T08:58:51.812Z,21.98
2023-03-17T09:01:21.216Z,22.58
2023-03-17T09:03:49.435Z,22.96
2023-03-17T09:06:16.459Z,22.92
2023-03-17T09:08:45.069Z,22.72
2023-03-17T09:11:16.583Z,22.42
2023-03-17T09:13:46.434Z,22.12
2023-03-17T09:16:14.718Z,21.72
2023-03-17T09:18:42.241Z,21.29
2023-03-17T09:21:11.614Z,20.80
2023-03-17T09:23:38.650Z,20.35
2023-03-17T09:26:06.203Z,20.03
2023-03-17T09:28:33.829Z,19.78
2023-03-17T09:31:06.113Z,20.26
2023-03-17T09:33:33.168Z,21.22
2023-03-17T09:36:00.182Z,22.13
2023-03-17T09:38:28.057Z,23.12
2023-03-17T09:41:09.701Z,24.12
2023-03-17T09:43:52.268Z,25.07
2023-03-17T09:46:37.509Z,25.95
2023-03-17T09:49:09.418Z,26.74
2023-03-17T09:51:36.687Z,27.32
2023-03-17T09:54:11.092Z,27.87
2023-03-17T09:56:46.070Z,28.42
2023-03-17T09:59:34.258Z,28.78
2023-03-17T10:02:03.106Z,29.08
2023-03-17T10:04:30.108Z,29.35
2023-03-17T10:07:04.478Z,30.05
2023-03-17T10:09:40.070Z,30.89
2023-03-17T10:12:18.272Z,31.30
2023-03-17T10:14:58.482Z,31.91
2023-03-17T10:17:31.976Z,32.21
2023-03-17T10:20:06.723Z,31.93
2023-03-17T10:22:41.732Z,31.53
2023-03-17T10:25:15.632Z,30.96
2023-03-17T10:27:51.561Z,30.52
2023-03-17T10:30:23.546Z,30.07
2023-03-17T10:32:57.318Z,29.69
2023-03-17T10:35:25.380Z,29.38
2023-03-17T10:38:04.423Z,28.82
2023-03-17T10:40:38.845Z,28.13
2023-03-17T10:43:11.073Z,27.33
2023-03-17T10:45:44.146Z,26.73
2023-03-17T10:48:18.905Z,26.44
2023-03-17T10:50:49.300Z,26.45
2023-03-17T10:53:29.312Z,26.40
2023-03-17T10:56:06.701Z,26.28
2023-03-17T10:58:39.603Z,25.81
2023-03-17T11:01:15.428Z,25.69
2023-03-17T11:03:44.131Z,25.57
2023-03-17T11:06:13.717Z,25.53
2023-03-17T11:08:46.997Z,25.78
2023-03-17T11:11:26.270Z,25.88
2023-03-17T11:14:02.413Z,25.74
2023-03-17T11:16:34.891Z,25.78
2023-03-17T11:19:11.467Z,25.96
2023-03-17T11:21:55.003Z,26.05
2023-03-17T11:24:30.847Z,25.78
2023-03-17T11:27:09.129Z,25.83
2023-03-17T11:30:01.774Z,26.27
2023-03-17T11:32:37.843Z,27.19
2023-03-17T11:35:34.153Z,27.69
2023-03-17T11:38:24.713Z,27.74
2023-03-17T11:41:23.996Z,28.24
2023-03-17T11:44:18.325Z,28.28
2023-03-17T11:46:56.236Z,27.98
2023-03-17T11:49:32.917Z,27.46
2023-03-17T11:52:11.115Z,26.92
2023-03-17T11:54:50.567Z,26.78
2023-03-17T11:57:27.145Z,26.76
2023-03-17T12:00:00.603Z,26.78
2023-03-17T12:02:37.387Z,26.93
2023-03-17T12:05:09.683Z,27.44
2023-03-17T12:07:44.801Z,27.96
2023-03-17T12:10:22.617Z,28.13
2023-03-17T12:12:56.363Z,27.89
2023-03-17T12:15:32.985Z,27.75
2023-03-17T12:18:10.765Z,27.69
2023-03-17T12:20:49.701Z,27.99
2023-03-17T12:23:33.446Z,27.88
2023-03-17T12:26:06.919Z,27.58
2023-03-17T12:28:40.763Z,27.16
2023-03-17T12:31:14.048Z,26.71
2023-03-17T12:33:50.010Z,26.74
2023-03-17T12:36:18.585Z,26.61
2023-03-17T12:38:56.817Z,27.03
2023-03-17T12:41:41.451Z,27.46
2023-03-17T12:44:34.271Z,28.01
2023-03-17T12:47:33.208Z,28.01
2023-03-17T12:50:53.138Z,27.78
2023-03-17T12:53:28.429Z,27.50
2023-03-17T12:56:06.579Z,27.40
2023-03-17T12:58:43.973Z,27.24
2023-03-17T13:01:29.952Z,27.02
2023-03-17T13:04:17.951Z,27.05
2023-03-17T13:06:54.945Z,26.76
2023-03-17T13:09:46.855Z,26.38
2023-03-17T13:12:57.516Z,25.90
2023-03-17T13:15:58.682Z,25.58
2023-03-17T13:18:50.387Z,25.39
2023-03-17T13:21:25.154Z,25.29
2023-03-17T13:24:39.881Z,25.11
2023-03-17T13:27:12.321Z,24.97
2023-03-17T13:29:45.987Z,24.75
2023-03-17T13:32:38.413Z,24.58
2023-03-17T13:35:22.041Z,24.50
2023-03-17T13:38:37.144Z,24.11
2023-03-17T13:41:41.542Z,23.98
2023-03-17T13:44:29.045Z,23.88
2023-03-17T13:47:15.895Z,23.88
2023-03-17T13:49:50.586Z,23.85
2023-03-17T13:52:27.440Z,23.82
2023-03-17T13:55:05.855Z,23.65
2023-03-17T13:57:37.180Z,23.54
2023-03-17T14:00:22.675Z,23.42
2023-03-17T14:02:59.807Z,23.44
2023-03-17T14:05:34.703Z,23.52
2023-03-17T14:08:04.782Z,23.61
2023-03-17T14:10:34.228Z,23.56
2023-03-17T14:13:16.232Z,23.34
2023-03-17T14:15:51.545Z,23.35
2023-03-17T14:18:22.991Z,23.23
2023-03-17T14:20:56.187Z,23.13
2023-03-17T14:23:24.153Z,22.96
2023-03-17T14:25:54.469Z,22.92
2023-03-17T14:28:27.280Z,22.76
2023-03-17T14:30:59.101Z,22.60
2023-03-17T14:33:28.159Z,22.51
2023-03-17T14:36:01.500Z,22.41
2023-03-17T14:38:31.403Z,22.32
2023-03-17T14:41:04.706Z,22.27
2023-03-17T14:43:33.333Z,22.30
2023-03-17T14:46:02.817Z,22.27
2023-03-17T14:48:34.329Z,22.23
2023-03-17T14:51:07.890Z,22.13
2023-03-17T14:53:40.025Z,22.08
2023-03-17T14:56:08.020Z,22.03
2023-03-17T14:58:41.421Z,21.97
2023-03-17T15:01:15.379Z,21.92
2023-03-17T15:03:56.322Z,21.94
2023-03-17T15:06:27.445Z,22.01
2023-03-17T15:08:57.461Z,22.00
2023-03-17T15:11:28.201Z,22.03
2023-03-17T15:14:07.108Z,22.14
2023-03-17T15:16:36.260Z,22.26
2023-03-17T15:19:08.455Z,22.32
2023-03-17T15:21:41.951Z,22.39
2023-03-17T15:24:36.212Z,22.43
2023-03-17T15:27:06.997Z,22.42
2023-03-17T15:29:34.365Z,22.39
2023-03-17T15:32:11.719Z,22.33
2023-03-17T15:34:39.025Z,22.16
2023-03-17T15:37:25.076Z,22.00
2023-03-17T15:39:56.237Z,21.93
2023-03-17T15:42:27.216Z,21.89
2023-03-17T15:44:54.744Z,21.88
2023-03-17T15:47:32.948Z,21.87
2023-03-17T15:50:13.787Z,21.84
2023-03-17T15:52:42.988Z,21.76
2023-03-17T15:55:19.664Z,21.70
2023-03-17T15:57:54.693Z,21.70
2023-03-17T16:00:26.552Z,21.66
2023-03-17T16:02:57.106Z,21.63
2023-03-17T16:05:28.048Z,21.58
2023-03-17T16:07:57.725Z,21.52
2023-03-17T16:10:27.345Z,21.51
2023-03-17T16:12:55.469Z,21.50
2023-03-17T16:15:31.282Z,21.51
2023-03-17T16:18:02.366Z,21.50
2023-03-17T16:20:37.248Z,21.49
2023-03-17T16:23:11.921Z,21.48
2023-03-17T16:25:39.206Z,21.42
2023-03-17T16:28:16.701Z,21.36
2023-03-17T16:30:46.088Z,21.34
2023-03-17T16:33:21.075Z,21.29
2023-03-17T16:35:49.228Z,21.27
2023-03-17T16:38:21.190Z,21.23
2023-03-17T16:40:52.741Z,21.19
2023-03-17T16:43:25.924Z,21.15
2023-03-17T16:45:57.596Z,21.10
2023-03-17T16:48:25.769Z,21.06
2023-03-17T16:50:53.371Z,21.01
2023-03-17T16:53:26.028Z,20.94
2023-03-17T16:55:55.321Z,20.87
2023-03-17T16:58:25.612Z,20.83
2023-03-17T17:00:57.472Z,20.79
2023-03-17T17:03:24.717Z,20.75
2023-03-17T17:05:51.793Z,20.74
2023-03-17T17:08:20.693Z,20.72
2023-03-17T17:10:47.740Z,20.71
2023-03-17T17:13:15.762Z,20.68
2023-03-17T17:15:53.212Z,20.60
2023-03-17T17:18:24.333Z,20.58
2023-03-17T17:20:53.539Z,20.53
2023-03-17T17:23:24.315Z,20.49
2023-03-17T17:25:53.131Z,20.44
2023-03-17T17:28:23.792Z,20.39
2023-03-17T17:30:52.531Z,20.35
2023-03-17T17:33:21.652Z,20.32
2023-03-17T17:36:12.710Z,20.24
2023-03-17T17:38:41.185Z,20.21
2023-03-17T17:41:11.714Z,20.15
2023-03-17T17:43:38.770Z,20.10
2023-03-17T17:46:11.395Z,20.05
2023-03-17T17:48:38.322Z,20.01
2023-03-17T17:51:06.004Z,19.99
2023-03-17T17:53:34.245Z,19.95
2023-03-17T17:56:02.712Z,19.91
2023-03-17T17:58:30.771Z,19.90
2023-03-17T18:00:58.274Z,19.89
2023-03-17T18:03:26.880Z,19.89
2023-03-17T18:05:56.205Z,19.89
2023-03-17T18:08:24.020Z,19.88
2023-03-17T18:10:52.196Z,19.88
2023-03-17T18:13:20.659Z,19.88
2023-03-17T18:15:47.711Z,19.84
2023-03-17T18:18:14.947Z,19.80
2023-03-17T18:20:42.003Z,19.78
2023-03-17T18:23:09.179Z,19.77
2023-03-17T18:25:37.207Z,19.74
2023-03-17T18:28:06.211Z,19.73
2023-03-17T18:30:35.843Z,19.69
2023-03-17T18:33:09.068Z,19.66
2023-03-17T18:35:37.473Z,19.62
2023-03-17T18:38:05.223Z,19.60
2023-03-17T18:40:32.369Z,19.60
2023-03-17T18:42:59.525Z,19.59
2023-03-17T18:45:26.990Z,19.59
2023-03-17T18:47:55.324Z,19.58
2023-03-17T18:50:23.183Z,19.55
2023-03-17T18:52:50.970Z,19.54
2023-03-17T18:55:18.308Z,19.52
2023-03-17T18:57:46.922Z,19.51
2023-03-17T19:00:17.337Z,19.51
2023-03-17T19:02:45.469Z,19.47
2023-03-17T19:05:14.301Z,19.44
2023-03-17T19:07:41.933Z,19.43
2023-03-17T19:10:12.183Z,19.41
2023-03-17T19:12:39.698Z,19.38
2023-03-17T19:15:09.514Z,19.36
2023-03-17T19:17:36.880Z,19.33
2023-03-17T19:20:05.628Z,19.32
2023-03-17T19:22:34.799Z,19.27
2023-03-17T19:25:04.087Z,19.23
2023-03-17T19:27:31.652Z,19.18
2023-03-17T19:29:58.557Z,19.18
2023-03-17T19:32:25.625Z,19.21
2023-03-17T19:34:53.128Z,19.20
2023-03-17T19:37:20.015Z,19.17
2023-03-17T19:39:48.294Z,19.13
2023-03-17T19:42:16.121Z,19.07
2023-03-17T19:44:43.165Z,19.03
2023-03-17T19:47:11.106Z,19.01
2023-03-17T19:49:38.798Z,19.00
2023-03-17T19:52:07.577Z,18.96
2023-03-17T19:54:35.083Z,18.93
2023-03-17T19:57:03.639Z,18.92
2023-03-17T19:59:31.117Z,18.92
2023-03-17T20:01:58.618Z,18.87
2023-03-17T20:04:26.094Z,18.85
2023-03-17T20:06:55.627Z,18.82
2023-03-17T20:09:24.595Z,18.80
2023-03-17T20:11:53.216Z,18.78
2023-03-17T20:14:21.464Z,18.77
2023-03-17T20:16:49.661Z,18.77
2023-03-17T20:19:17.108Z,18.76
2023-03-17T20:21:44.513Z,18.75
2023-03-17T20:24:12.818Z,18.72
2023-03-17T20:26:41.498Z,18.67
2023-03-17T20:29:08.650Z,18.61
2023-03-17T20:31:38.569Z,18.55
2023-03-17T20:34:06.162Z,18.52
2023-03-17T20:36:33.449Z,18.46
2023-03-17T20:39:00.461Z,18.41
2023-03-17T20:41:27.494Z,18.37
2023-03-17T20:43:54.383Z,18.31
2023-03-17T20:46:23.970Z,18.30
2023-03-17T20:48:58.363Z,18.31
2023-03-17T20:51:27.151Z,18.30
2023-03-17T20:53:55.089Z,18.27
2023-03-17T20:56:24.437Z,18.22
2023-03-17T20:58:52.992Z,18.19
2023-03-17T21:01:21.437Z,18.17
2023-03-17T21:03:50.067Z,18.18
2023-03-17T21:06:19.559Z,18.17
2023-03-17T21:08:46.921Z,18.18
2023-03-17T21:11:18.358Z,18.22
2023-03-17T21:13:46.436Z,18.22
2023-03-17T21:16:18.842Z,18.22
2023-03-17T21:18:45.756Z,18.23
2023-03-17T21:21:12.732Z,18.25
2023-03-17T21:23:41.554Z,18.27
2023-03-17T21:26:09.435Z,18.27
2023-03-17T21:28:41.255Z,18.28
2023-03-17T21:31:10.001Z,18.28
2023-03-17T21:33:37.723Z,18.30
2023-03-17T21:36:06.539Z,18.30
2023-03-17T21:38:33.791Z,18.23
2023-03-17T21:41:23.241Z,18.14
2023-03-17T21:43:50.448Z,18.16
2023-03-17T21:46:17.468Z,18.15
2023-03-17T21:48:44.572Z,18.14
2023-03-17T21:51:11.577Z,18.09
2023-03-17T21:53:38.675Z,18.05
2023-03-17T21:56:08.312Z,18.01
2023-03-17T21:58:35.411Z,17.97
2023-03-17T22:01:03.060Z,17.90
2023-03-17T22:03:30.242Z,17.83
2023-03-17T22:05:57.163Z,17.78
2023-03-17T22:08:25.015Z,17.77
2023-03-17T22:10:52.230Z,17.72
2023-03-17T22:13:20.426Z,17.69
2023-03-17T22:15:47.606Z,17.68
2023-03-17T22:18:14.596Z,17.67
2023-03-17T22:20:41.482Z,17.61
2023-03-17T22:23:08.359Z,17.59
2023-03-17T22:25:35.238Z,17.57
2023-03-17T22:28:02.082Z,17.56
2023-03-17T22:30:30.719Z,17.56
2023-03-17T22:32:57.829Z,17.55
2023-03-17T22:35:24.961Z,17.54
2023-03-17T22:37:51.805Z,17.56
2023-03-17T22:40:19.031Z,17.59
2023-03-17T22:42:46.669Z,17.61
2023-03-17T22:45:14.176Z,17.61
2023-03-17T22:47:42.578Z,17.59
2023-03-17T22:50:11.707Z,17.55
2023-03-17T22:52:38.945Z,17.55
2023-03-17T22:55:07.613Z,17.54
2023-03-17T22:57:34.627Z,17.51
2023-03-17T23:00:01.853Z,17.51
2023-03-17T23:02:29.483Z,17.53
2023-03-17T23:04:57.724Z,17.57
2023-03-17T23:07:24.646Z,17.58
2023-03-17T23:09:51.633Z,17.61
2023-03-17T23:12:22.866Z,17.61
2023-03-17T23:14:49.903Z,17.59
2023-03-17T23:17:16.846Z,17.58
2023-03-17T23:19:43.783Z,17.61
2023-03-17T23:22:12.474Z,17.61
2023-03-17T23:24:39.350Z,17.59
2023-03-17T23:27:06.651Z,17.59
2023-03-17T23:29:33.557Z,17.58
2023-03-17T23:32:01.088Z,17.57
2023-03-17T23:34:28.395Z,17.59
2023-03-17T23:36:55.226Z,17.61
2023-03-17T23:39:23.972Z,17.64
2023-03-17T23:41:51.127Z,17.67
2023-03-17T23:44:18.046Z,17.69
2023-03-17T23:46:45.128Z,17.69
2023-03-17T23:49:12.156Z,17.71
2023-03-17T23:51:40.688Z,17.69
2023-03-17T23:54:08.278Z,17.66
2023-03-17T23:56:36.907Z,17.64
2023-03-17T23:59:04.200Z,17.62
